Terminal Aerodrome Forecast
Issued by NWS

Home | Current Version | Previous Version | Text Only | Print | Product List | Glossary On
Versions: 1 2 3 4 5 6 7 8 9 10 11 12 13 14 15 16 17
000
FTUS41 KPBZ 291900 AAA
TAFDUJ
TAF AMD
KDUJ 291908Z 2919/3018 23010G18KT P6SM SKC
     FM300400 20010KT 4SM -SN OVC025
     FM300600 21010KT 3SM -SN OVC015
     FM301200 26011KT 5SM -SN BKN015 OVC025
     FM301500 26012G20KT P6SM BKN025=

USA.gov is the U.S. government's official web portal to all federal, state and local government web resources and services.